sensor_id;sensor_type;location;lat;lon;timestamp;pressure;altitude;pressure_sealevel;temperature;humidity
32642;BME280;19323;56.072;9.698;2023-04-10T00:01:57;101860.38;;;28.02;29.74
32642;BME280;19323;56.072;9.698;2023-04-10T00:04:22;101862.22;;;28.01;29.71
32642;BME280;19323;56.072;9.698;2023-04-10T00:06:47;101855.13;;;28.00;29.51
32642;BME280;19323;56.072;9.698;2023-04-10T00:09:13;101850.75;;;27.99;29.65
32642;BME280;19323;56.072;9.698;2023-04-10T00:11:38;101849.88;;;27.99;29.30
32642;BME280;19323;56.072;9.698;2023-04-10T00:14:03;101848.06;;;27.99;29.50
32642;BME280;19323;56.072;9.698;2023-04-10T00:16:28;101843.66;;;27.98;29.91
32642;BME280;19323;56.072;9.698;2023-04-10T00:18:53;101843.66;;;27.98;29.56
32642;BME280;19323;56.072;9.698;2023-04-10T00:21:18;101839.28;;;27.97;29.76
32642;BME280;19323;56.072;9.698;2023-04-10T00:23:44;101838.41;;;27.97;29.60
32642;BME280;19323;56.072;9.698;2023-04-10T00:26:09;101834.88;;;27.96;29.60
32642;BME280;19323;56.072;9.698;2023-04-10T00:28:34;101833.19;;;27.95;29.35
32642;BME280;19323;56.072;9.698;2023-04-10T00:31:05;101829.81;;;27.93;29.51
32642;BME280;19323;56.072;9.698;2023-04-10T00:33:30;101834.19;;;27.94;29.59
32642;BME280;19323;56.072;9.698;2023-04-10T00:35:56;101824.41;;;27.93;29.47
32642;BME280;19323;56.072;9.698;2023-04-10T00:38:21;101829.81;;;27.93;29.62
32642;BME280;19323;56.072;9.698;2023-04-10T00:40:46;101819.03;;;27.93;29.80
32642;BME280;19323;56.072;9.698;2023-04-10T00:43:11;101814.50;;;27.93;29.66
32642;BME280;19323;56.072;9.698;2023-04-10T00:45:37;101818.19;;;27.92;29.53
32642;BME280;19323;56.072;9.698;2023-04-10T00:48:02;101817.19;;;27.93;29.41
32642;BME280;19323;56.072;9.698;2023-04-10T00:50:28;101813.66;;;27.93;29.74
32642;BME280;19323;56.072;9.698;2023-04-10T00:52:53;101810.13;;;27.92;29.54
32642;BME280;19323;56.072;9.698;2023-04-10T00:55:18;101801.16;;;27.92;29.32
32642;BME280;19323;56.072;9.698;2023-04-10T00:57:44;101808.41;;;27.91;29.63
32642;BME280;19323;56.072;9.698;2023-04-10T01:00:11;101804.03;;;27.90;29.53
32642;BME280;19323;56.072;9.698;2023-04-10T01:02:36;101799.50;;;27.91;29.65
32642;BME280;19323;56.072;9.698;2023-04-10T01:05:01;101805.84;;;27.90;29.39
32642;BME280;19323;56.072;9.698;2023-04-10T01:07:34;101797.78;;;27.90;29.37
32642;BME280;19323;56.072;9.698;2023-04-10T01:10:10;101794.25;;;27.89;29.59
32642;BME280;19323;56.072;9.698;2023-04-10T01:12:43;101795.25;;;27.88;29.25
32642;BME280;19323;56.072;9.698;2023-04-10T01:15:11;101792.56;;;27.88;29.53
32642;BME280;19323;56.072;9.698;2023-04-10T01:20:11;101802.63;;;27.86;29.40
32642;BME280;19323;56.072;9.698;2023-04-10T01:27:48;101784.75;;;27.85;29.29
32642;BME280;19323;56.072;9.698;2023-04-10T01:30:19;101792.13;;;27.83;29.35
32642;BME280;19323;56.072;9.698;2023-04-10T01:32:45;101785.03;;;27.82;29.20
32642;BME280;19323;56.072;9.698;2023-04-10T01:35:12;101792.28;;;27.82;29.18
32642;BME280;19323;56.072;9.698;2023-04-10T01:37:39;101790.44;;;27.82;29.31
32642;BME280;19323;56.072;9.698;2023-04-10T01:40:08;101782.50;;;27.81;29.55
32642;BME280;19323;56.072;9.698;2023-04-10T01:42:37;101776.28;;;27.80;29.30
32642;BME280;19323;56.072;9.698;2023-04-10T01:45:03;101774.59;;;27.79;29.30
32642;BME280;19323;56.072;9.698;2023-04-10T01:47:30;101774.72;;;27.78;29.21
32642;BME280;19323;56.072;9.698;2023-04-10T01:49:56;101768.66;;;27.76;29.29
32642;BME280;19323;56.072;9.698;2023-04-10T01:52:22;101771.91;;;27.79;29.40
32642;BME280;19323;56.072;9.698;2023-04-10T01:54:49;101779.09;;;27.79;29.63
32642;BME280;19323;56.072;9.698;2023-04-10T01:57:15;101768.50;;;27.77;29.56
32642;BME280;19323;56.072;9.698;2023-04-10T01:59:41;101772.88;;;27.78;29.58
32642;BME280;19323;56.072;9.698;2023-04-10T02:02:06;101769.34;;;27.78;29.26
32642;BME280;19323;56.072;9.698;2023-04-10T02:04:32;101774.88;;;27.76;29.65
32642;BME280;19323;56.072;9.698;2023-04-10T02:09:24;101765.25;;;27.73;29.30
32642;BME280;19323;56.072;9.698;2023-04-10T02:12:01;101761.72;;;27.73;29.17
32642;BME280;19323;56.072;9.698;2023-04-10T02:14:29;101763.53;;;27.72;29.47
32642;BME280;19323;56.072;9.698;2023-04-10T02:16:55;101759.88;;;27.73;29.36
32642;BME280;19323;56.072;9.698;2023-04-10T02:19:21;101754.81;;;27.70;29.17
32642;BME280;19323;56.072;9.698;2023-04-10T02:21:47;101754.81;;;27.70;29.61
32642;BME280;19323;56.072;9.698;2023-04-10T02:24:13;101753.09;;;27.69;29.16
32642;BME280;19323;56.072;9.698;2023-04-10T02:26:47;101753.09;;;27.69;29.22
32642;BME280;19323;56.072;9.698;2023-04-10T02:29:13;101747.00;;;27.67;29.30
32642;BME280;19323;56.072;9.698;2023-04-10T02:31:39;101742.63;;;27.66;29.69
32642;BME280;19323;56.072;9.698;2023-04-10T02:34:04;101740.09;;;27.65;29.24
32642;BME280;19323;56.072;9.698;2023-04-10T02:36:29;101737.53;;;27.63;29.63
32642;BME280;19323;56.072;9.698;2023-04-10T02:38:56;101735.69;;;27.64;29.18
32642;BME280;19323;56.072;9.698;2023-04-10T02:41:22;101731.31;;;27.63;29.72
32642;BME280;19323;56.072;9.698;2023-04-10T02:43:48;101734.13;;;27.61;29.29
32642;BME280;19323;56.072;9.698;2023-04-10T02:46:13;101720.59;;;27.53;29.55
32642;BME280;19323;56.072;9.698;2023-04-10T02:48:38;101729.06;;;27.58;29.27
32642;BME280;19323;56.072;9.698;2023-04-10T02:51:03;101724.53;;;27.59;29.49
32642;BME280;19323;56.072;9.698;2023-04-10T02:53:29;101721.97;;;27.57;29.39
32642;BME280;19323;56.072;9.698;2023-04-10T02:55:54;101720.28;;;27.56;29.58
32642;BME280;19323;56.072;9.698;2023-04-10T02:58:19;101716.75;;;27.56;29.35
32642;BME280;19323;56.072;9.698;2023-04-10T03:00:49;101707.84;;;27.55;29.61
32642;BME280;19323;56.072;9.698;2023-04-10T03:03:15;101696.22;;;27.54;29.27
32642;BME280;19323;56.072;9.698;2023-04-10T03:05:40;101701.59;;;27.54;29.71
32642;BME280;19323;56.072;9.698;2023-04-10T03:08:05;101695.38;;;27.54;29.38
32642;BME280;19323;56.072;9.698;2023-04-10T03:10:30;101695.38;;;27.54;29.36
32642;BME280;19323;56.072;9.698;2023-04-10T03:12:56;101689.16;;;27.53;29.45
32642;BME280;19323;56.072;9.698;2023-04-10T03:15:21;101691.00;;;27.53;29.56
32642;BME280;19323;56.072;9.698;2023-04-10T03:17:46;101683.91;;;27.52;29.78
32642;BME280;19323;56.072;9.698;2023-04-10T03:20:11;101686.75;;;27.50;29.73
32642;BME280;19323;56.072;9.698;2023-04-10T03:22:36;101684.94;;;27.51;29.68
32642;BME280;19323;56.072;9.698;2023-04-10T03:25:02;101684.22;;;27.49;29.46
32642;BME280;19323;56.072;9.698;2023-04-10T03:27:27;101681.53;;;27.49;29.51
32642;BME280;19323;56.072;9.698;2023-04-10T03:29:53;101675.28;;;27.48;29.77
32642;BME280;19323;56.072;9.698;2023-04-10T03:32:18;101668.38;;;27.46;29.71
32642;BME280;19323;56.072;9.698;2023-04-10T03:34:43;101669.38;;;27.45;29.88
32642;BME280;19323;56.072;9.698;2023-04-10T03:37:09;101656.91;;;27.44;29.67
32642;BME280;19323;56.072;9.698;2023-04-10T03:39:34;101659.59;;;27.44;29.67
32642;BME280;19323;56.072;9.698;2023-04-10T03:42:01;101662.28;;;27.44;29.33
32642;BME280;19323;56.072;9.698;2023-04-10T03:44:26;101647.16;;;27.43;29.79
32642;BME280;19323;56.072;9.698;2023-04-10T03:46:51;101649.84;;;27.43;29.46
32642;BME280;19323;56.072;9.698;2023-04-10T03:49:16;101654.38;;;27.42;29.79
32642;BME280;19323;56.072;9.698;2023-04-10T03:51:41;101654.38;;;27.42;29.44
32642;BME280;19323;56.072;9.698;2023-04-10T03:54:06;101644.59;;;27.41;29.54
32642;BME280;19323;56.072;9.698;2023-04-10T03:56:32;101649.28;;;27.39;29.37
32642;BME280;19323;56.072;9.698;2023-04-10T03:58:57;101648.44;;;27.39;29.50
32642;BME280;19323;56.072;9.698;2023-04-10T04:01:22;101655.50;;;27.40;29.53
32642;BME280;19323;56.072;9.698;2023-04-10T04:03:47;101651.84;;;27.41;29.53
32642;BME280;19323;56.072;9.698;2023-04-10T04:06:12;101649.28;;;27.39;29.77
32642;BME280;19323;56.072;9.698;2023-04-10T04:08:37;101646.78;;;27.38;29.50
32642;BME280;19323;56.072;9.698;2023-04-10T04:11:03;101645.91;;;27.37;29.66
32642;BME280;19323;56.072;9.698;2023-04-10T04:13:28;101646.06;;;27.36;29.68
32642;BME280;19323;56.072;9.698;2023-04-10T04:15:53;101647.88;;;27.35;29.78
32642;BME280;19323;56.072;9.698;2023-04-10T04:18:18;101643.38;;;27.36;29.39
32642;BME280;19323;56.072;9.698;2023-04-10T04:20:43;101645.19;;;27.35;29.67
32642;BME280;19323;56.072;9.698;2023-04-10T04:23:09;101631.91;;;27.33;29.85
32642;BME280;19323;56.072;9.698;2023-04-10T04:25:34;101638.13;;;27.34;29.85
32642;BME280;19323;56.072;9.698;2023-04-10T04:27:59;101636.28;;;27.35;29.75
32642;BME280;19323;56.072;9.698;2023-04-10T04:30:25;101633.75;;;27.33;29.54
32642;BME280;19323;56.072;9.698;2023-04-10T04:32:50;101626.69;;;27.32;29.49
32642;BME280;19323;56.072;9.698;2023-04-10T04:35:15;101624.13;;;27.30;29.39
32642;BME280;19323;56.072;9.698;2023-04-10T04:37:40;101595.03;;;27.16;29.57
32642;BME280;19323;56.072;9.698;2023-04-10T04:40:06;101622.44;;;27.29;29.70
32642;BME280;19323;56.072;9.698;2023-04-10T04:42:31;101619.75;;;27.29;29.59
32642;BME280;19323;56.072;9.698;2023-04-10T04:44:56;101619.91;;;27.28;29.86
32642;BME280;19323;56.072;9.698;2023-04-10T04:47:21;101609.97;;;27.28;29.47
32642;BME280;19323;56.072;9.698;2023-04-10T04:49:48;101621.75;;;27.27;29.44
32642;BME280;19323;56.072;9.698;2023-04-10T04:52:13;101621.75;;;27.27;29.84
32642;BME280;19323;56.072;9.698;2023-04-10T04:54:38;101606.59;;;27.26;29.82
32642;BME280;19323;56.072;9.698;2023-04-10T04:57:03;101608.44;;;27.26;29.87
32642;BME280;19323;56.072;9.698;2023-04-10T04:59:29;101611.13;;;27.26;29.89
32642;BME280;19323;56.072;9.698;2023-04-10T05:01:54;101607.59;;;27.25;29.98
32642;BME280;19323;56.072;9.698;2023-04-10T05:04:19;101604.06;;;27.25;29.97
32642;BME280;19323;56.072;9.698;2023-04-10T05:06:45;101605.91;;;27.24;30.01
32642;BME280;19323;56.072;9.698;2023-04-10T05:09:10;101605.22;;;27.22;29.71
32642;BME280;19323;56.072;9.698;2023-04-10T05:11:35;101592.75;;;27.21;30.01
32642;BME280;19323;56.072;9.698;2023-04-10T05:14:01;101594.56;;;27.21;29.56
32642;BME280;19323;56.072;9.698;2023-04-10T05:16:26;101590.06;;;27.21;29.69
32642;BME280;19323;56.072;9.698;2023-04-10T05:18:51;101595.44;;;27.21;29.81
32642;BME280;19323;56.072;9.698;2023-04-10T05:21:16;101591.06;;;27.20;29.53
32642;BME280;19323;56.072;9.698;2023-04-10T05:23:41;101592.75;;;27.21;29.59
32642;BME280;19323;56.072;9.698;2023-04-10T05:26:06;101591.06;;;27.20;29.78
32642;BME280;19323;56.072;9.698;2023-04-10T05:28:32;101591.88;;;27.21;29.91
32642;BME280;19323;56.072;9.698;2023-04-10T05:30:57;101600.81;;;27.21;29.96
32642;BME280;19323;56.072;9.698;2023-04-10T05:33:22;101589.34;;;27.19;29.91
32642;BME280;19323;56.072;9.698;2023-04-10T05:35:47;101587.50;;;27.20;30.01
32642;BME280;19323;56.072;9.698;2023-04-10T05:38:12;101588.50;;;27.19;29.52
32642;BME280;19323;56.072;9.698;2023-04-10T05:40:38;101579.72;;;27.17;29.85
32642;BME280;19323;56.072;9.698;2023-04-10T05:43:03;101574.34;;;27.17;29.60
32642;BME280;19323;56.072;9.698;2023-04-10T05:45:28;101572.66;;;27.16;30.02
32642;BME280;19323;56.072;9.698;2023-04-10T05:47:54;101569.13;;;27.15;29.66
32642;BME280;19323;56.072;9.698;2023-04-10T05:50:19;101566.44;;;27.15;29.54
32642;BME280;19323;56.072;9.698;2023-04-10T05:52:44;101568.13;;;27.16;29.78
32642;BME280;19323;56.072;9.698;2023-04-10T05:55:10;101564.44;;;27.17;29.88
32642;BME280;19323;56.072;9.698;2023-04-10T05:57:35;101558.22;;;27.17;29.70
32642;BME280;19323;56.072;9.698;2023-04-10T06:00:00;101563.59;;;27.17;29.63
32642;BME280;19323;56.072;9.698;2023-04-10T06:02:26;101555.53;;;27.17;29.61
32642;BME280;19323;56.072;9.698;2023-04-10T06:04:51;101557.38;;;27.16;29.55
32642;BME280;19323;56.072;9.698;2023-04-10T06:07:17;101552.97;;;27.15;29.69
32642;BME280;19323;56.072;9.698;2023-04-10T06:09:42;101551.13;;;27.16;30.01
32642;BME280;19323;56.072;9.698;2023-04-10T06:12:07;101559.06;;;27.17;29.69
32642;BME280;19323;56.072;9.698;2023-04-10T06:14:32;101552.00;;;27.16;30.00
32642;BME280;19323;56.072;9.698;2023-04-10T06:16:57;101553.81;;;27.16;29.75
32642;BME280;19323;56.072;9.698;2023-04-10T06:19:22;101545.75;;;27.16;30.08
32642;BME280;19323;56.072;9.698;2023-04-10T06:21:47;101539.53;;;27.15;30.07
32642;BME280;19323;56.072;9.698;2023-04-10T06:24:13;101534.16;;;27.15;30.09
32642;BME280;19323;56.072;9.698;2023-04-10T06:26:39;101535.16;;;27.14;29.78
32642;BME280;19323;56.072;9.698;2023-04-10T06:29:04;101535.16;;;27.14;30.11
32642;BME280;19323;56.072;9.698;2023-04-10T06:31:32;101528.09;;;27.13;29.67
32642;BME280;19323;56.072;9.698;2023-04-10T06:33:58;101534.47;;;27.12;29.77
32642;BME280;19323;56.072;9.698;2023-04-10T06:36:23;101525.56;;;27.11;30.20
32642;BME280;19323;56.072;9.698;2023-04-10T06:38:48;101522.00;;;27.11;29.81
32642;BME280;19323;56.072;9.698;2023-04-10T06:41:13;101524.00;;;27.09;30.22
32642;BME280;19323;56.072;9.698;2023-04-10T06:43:38;101518.34;;;27.12;30.13
32642;BME280;19323;56.072;9.698;2023-04-10T06:46:04;101510.28;;;27.12;30.33
32642;BME280;19323;56.072;9.698;2023-04-10T06:48:30;101513.94;;;27.11;30.12
32642;BME280;19323;56.072;9.698;2023-04-10T06:50:55;101511.25;;;27.11;30.41
32642;BME280;19323;56.072;9.698;2023-04-10T06:53:20;101501.50;;;27.10;30.34
32642;BME280;19323;56.072;9.698;2023-04-10T06:55:46;101511.25;;;27.11;30.18
32642;BME280;19323;56.072;9.698;2023-04-10T06:58:11;101513.94;;;27.11;30.13
32642;BME280;19323;56.072;9.698;2023-04-10T07:00:36;101507.03;;;27.08;30.15
32642;BME280;19323;56.072;9.698;2023-04-10T07:03:02;101509.84;;;27.07;30.54
32642;BME280;19323;56.072;9.698;2023-04-10T07:05:27;101505.50;;;27.06;30.69
32642;BME280;19323;56.072;9.698;2023-04-10T07:07:52;101510.19;;;27.04;30.30
32642;BME280;19323;56.072;9.698;2023-04-10T07:10:17;101502.25;;;27.02;30.81
32642;BME280;19323;56.072;9.698;2023-04-10T07:12:43;101495.19;;;27.01;30.89
32642;BME280;19323;56.072;9.698;2023-04-10T07:15:08;101503.13;;;27.03;30.99
32642;BME280;19323;56.072;9.698;2023-04-10T07:17:33;101489.81;;;27.01;30.60
32642;BME280;19323;56.072;9.698;2023-04-10T07:19:58;101490.66;;;27.02;30.68
32642;BME280;19323;56.072;9.698;2023-04-10T07:22:23;101491.50;;;27.02;31.08
32642;BME280;19323;56.072;9.698;2023-04-10T07:24:49;101487.97;;;27.02;30.69
32642;BME280;19323;56.072;9.698;2023-04-10T07:27:14;101486.13;;;27.02;30.65
32642;BME280;19323;56.072;9.698;2023-04-10T07:29:40;101482.59;;;27.02;30.93
32642;BME280;19323;56.072;9.698;2023-04-10T07:32:06;101481.91;;;27.00;31.04
32642;BME280;19323;56.072;9.698;2023-04-10T07:34:31;101484.72;;;26.98;31.22
32642;BME280;19323;56.072;9.698;2023-04-10T07:36:56;101469.47;;;26.99;30.96
32642;BME280;19323;56.072;9.698;2023-04-10T07:39:21;101480.22;;;26.99;31.13
32642;BME280;19323;56.072;9.698;2023-04-10T07:41:47;101472.16;;;26.99;31.01
32642;BME280;19323;56.072;9.698;2023-04-10T07:44:12;101470.44;;;26.98;31.16
32642;BME280;19323;56.072;9.698;2023-04-10T07:46:38;101466.06;;;26.97;31.03
32642;BME280;19323;56.072;9.698;2023-04-10T07:49:03;101466.78;;;26.99;31.10
32642;BME280;19323;56.072;9.698;2023-04-10T07:51:28;101455.16;;;26.98;31.05
32642;BME280;19323;56.072;9.698;2023-04-10T07:53:54;101461.53;;;26.97;31.19
32642;BME280;19323;56.072;9.698;2023-04-10T07:56:20;101458.72;;;26.99;31.37
32642;BME280;19323;56.072;9.698;2023-04-10T07:58:45;101455.16;;;26.98;31.46
32642;BME280;19323;56.072;9.698;2023-04-10T08:01:11;101455.00;;;27.00;31.67
32642;BME280;19323;56.072;9.698;2023-04-10T08:03:40;101442.41;;;27.00;31.35
32642;BME280;19323;56.072;9.698;2023-04-10T08:06:05;101448.47;;;27.02;31.85
32642;BME280;19323;56.072;9.698;2023-04-10T08:08:33;101441.09;;;27.04;31.72
32642;BME280;19323;56.072;9.698;2023-04-10T08:10:58;101441.09;;;27.04;31.68
32642;BME280;19323;56.072;9.698;2023-04-10T08:13:23;101438.28;;;27.06;31.69
32642;BME280;19323;56.072;9.698;2023-04-10T08:15:48;101447.34;;;27.05;31.44
32642;BME280;19323;56.072;9.698;2023-04-10T08:18:13;101431.22;;;27.05;31.78
32642;BME280;19323;56.072;9.698;2023-04-10T08:20:38;101442.13;;;27.03;31.67
32642;BME280;19323;56.072;9.698;2023-04-10T08:23:04;101429.38;;;27.05;31.27
32642;BME280;19323;56.072;9.698;2023-04-10T08:25:29;101430.34;;;27.04;31.42
32642;BME280;19323;56.072;9.698;2023-04-10T08:27:55;101436.59;;;27.05;31.69
32642;BME280;19323;56.072;9.698;2023-04-10T08:30:20;101425.84;;;27.05;31.75
32642;BME280;19323;56.072;9.698;2023-04-10T08:32:45;101424.00;;;27.05;31.69
32642;BME280;19323;56.072;9.698;2023-04-10T08:35:10;101422.00;;;27.07;31.62
32642;BME280;19323;56.072;9.698;2023-04-10T08:37:36;101417.31;;;27.09;31.51
32642;BME280;19323;56.072;9.698;2023-04-10T08:40:01;101403.69;;;27.11;31.58
32642;BME280;19323;56.072;9.698;2023-04-10T08:42:26;101409.06;;;27.11;31.58
32642;BME280;19323;56.072;9.698;2023-04-10T08:44:51;101403.41;;;27.14;31.22
32642;BME280;19323;56.072;9.698;2023-04-10T08:47:18;101396.88;;;27.17;31.40
32642;BME280;19323;56.072;9.698;2023-04-10T08:52:12;101385.28;;;27.16;31.13
32642;BME280;19323;56.072;9.698;2023-04-10T08:54:38;101387.78;;;27.18;31.44
32642;BME280;19323;56.072;9.698;2023-04-10T08:57:05;101382.25;;;27.19;31.40
32642;BME280;19323;56.072;9.698;2023-04-10T08:59:30;101380.31;;;27.21;31.44
32642;BME280;19323;56.072;9.698;2023-04-10T09:01:56;101367.69;;;27.22;30.96
32642;BME280;19323;56.072;9.698;2023-04-10T09:04:25;101368.56;;;27.22;31.05
32642;BME280;19323;56.072;9.698;2023-04-10T09:06:53;101361.84;;;27.26;31.14
32642;BME280;19323;56.072;9.698;2023-04-10T09:09:18;101355.47;;;27.27;31.06
32642;BME280;19323;56.072;9.698;2023-04-10T09:14:22;101343.56;;;27.30;31.29
32642;BME280;19323;56.072;9.698;2023-04-10T09:16:48;101335.34;;;27.31;31.42
32642;BME280;19323;56.072;9.698;2023-04-10T09:19:22;101330.81;;;27.32;31.05
32642;BME280;19323;56.072;9.698;2023-04-10T09:21:52;101322.59;;;27.33;31.25
32642;BME280;19323;56.072;9.698;2023-04-10T09:24:18;101327.97;;;27.33;31.36
32642;BME280;19323;56.072;9.698;2023-04-10T09:26:43;101318.03;;;27.34;31.39
32642;BME280;19323;56.072;9.698;2023-04-10T09:29:08;101317.72;;;27.37;31.02
32642;BME280;19323;56.072;9.698;2023-04-10T09:31:36;101301.44;;;27.39;31.13
32642;BME280;19323;56.072;9.698;2023-04-10T09:34:09;101305.63;;;27.41;31.28
32642;BME280;19323;56.072;9.698;2023-04-10T09:36:35;101296.59;;;27.42;30.96
32642;BME280;19323;56.072;9.698;2023-04-10T09:39:05;101299.78;;;27.46;31.23
32642;BME280;19323;56.072;9.698;2023-04-10T09:41:30;101292.41;;;27.48;30.87
32642;BME280;19323;56.072;9.698;2023-04-10T09:44:06;101287.84;;;27.48;30.88
32642;BME280;19323;56.072;9.698;2023-04-10T09:46:31;101280.47;;;27.50;30.65
32642;BME280;19323;56.072;9.698;2023-04-10T09:48:57;101281.34;;;27.51;31.15
32642;BME280;19323;56.072;9.698;2023-04-10T09:51:33;101276.63;;;27.53;30.84
32642;BME280;19323;56.072;9.698;2023-04-10T09:53:58;101269.25;;;27.55;31.09
32642;BME280;19323;56.072;9.698;2023-04-10T09:56:24;101278.16;;;27.56;30.67
32642;BME280;19323;56.072;9.698;2023-04-10T09:58:50;101271.63;;;27.58;31.00
32642;BME280;19323;56.072;9.698;2023-04-10T10:01:16;101264.22;;;27.60;30.53
32642;BME280;19323;56.072;9.698;2023-04-10T10:03:41;101264.06;;;27.62;30.83
32642;BME280;19323;56.072;9.698;2023-04-10T10:06:07;101259.53;;;27.62;30.54
32642;BME280;19323;56.072;9.698;2023-04-10T10:08:33;101259.19;;;27.65;30.98
32642;BME280;19323;56.072;9.698;2023-04-10T10:10:59;101259.88;;;27.67;30.77
32642;BME280;19323;56.072;9.698;2023-04-10T10:13:46;101257.03;;;27.69;31.11
32642;BME280;19323;56.072;9.698;2023-04-10T10:18:54;101241.38;;;27.72;30.99
32642;BME280;19323;56.072;9.698;2023-04-10T10:21:23;101231.50;;;27.73;30.75
32642;BME280;19323;56.072;9.698;2023-04-10T10:23:50;101228.78;;;27.73;30.98
32642;BME280;19323;56.072;9.698;2023-04-10T10:26:18;101219.84;;;27.72;31.29
32642;BME280;19323;56.072;9.698;2023-04-10T10:28:43;101217.84;;;27.74;31.22
32642;BME280;19323;56.072;9.698;2023-04-10T10:31:10;101217.84;;;27.74;30.98
32642;BME280;19323;56.072;9.698;2023-04-10T10:33:36;101205.41;;;27.73;30.99
32642;BME280;19323;56.072;9.698;2023-04-10T10:36:02;101200.88;;;27.74;30.96
32642;BME280;19323;56.072;9.698;2023-04-10T10:38:27;101202.56;;;27.75;31.16
32642;BME280;19323;56.072;9.698;2023-04-10T10:43:41;101186.41;;;27.75;30.85
32642;BME280;19323;56.072;9.698;2023-04-10T10:46:21;101173.94;;;27.74;31.05
32642;BME280;19323;56.072;9.698;2023-04-10T10:48:55;101174.78;;;27.74;31.46
32642;BME280;19323;56.072;9.698;2023-04-10T10:51:20;101176.50;;;27.76;31.09
32642;BME280;19323;56.072;9.698;2023-04-10T10:53:45;101172.78;;;27.77;31.36
32642;BME280;19323;56.072;9.698;2023-04-10T10:58:45;101160.00;;;27.79;31.04
32642;BME280;19323;56.072;9.698;2023-04-10T11:01:11;101152.59;;;27.81;30.94
32642;BME280;19323;56.072;9.698;2023-04-10T11:03:36;101172.13;;;27.83;31.40
32642;BME280;19323;56.072;9.698;2023-04-10T11:06:04;101166.75;;;27.83;31.04
32642;BME280;19323;56.072;9.698;2023-04-10T11:11:02;101159.38;;;27.85;31.10
32642;BME280;19323;56.072;9.698;2023-04-10T11:13:29;101154.84;;;27.85;31.22
32642;BME280;19323;56.072;9.698;2023-04-10T11:15:58;101160.06;;;27.87;31.29
32642;BME280;19323;56.072;9.698;2023-04-10T11:19:00;101151.97;;;27.87;31.31
32642;BME280;19323;56.072;9.698;2023-04-10T11:21:22;101153.69;;;27.88;31.22
32642;BME280;19323;56.072;9.698;2023-04-10T11:28:57;101133.81;;;27.89;31.13
32642;BME280;19323;56.072;9.698;2023-04-10T11:31:22;101135.50;;;27.90;31.26
32642;BME280;19323;56.072;9.698;2023-04-10T11:33:48;101130.09;;;27.90;30.98
32642;BME280;19323;56.072;9.698;2023-04-10T11:36:14;101126.41;;;27.91;31.24
32642;BME280;19323;56.072;9.698;2023-04-10T11:39:01;101130.09;;;27.90;31.12
32642;BME280;19323;56.072;9.698;2023-04-10T11:41:33;101123.72;;;27.91;31.14
32642;BME280;19323;56.072;9.698;2023-04-10T11:43:59;101122.72;;;27.92;30.93
32642;BME280;19323;56.072;9.698;2023-04-10T11:46:24;101110.94;;;27.93;31.14
32642;BME280;19323;56.072;9.698;2023-04-10T11:49:08;101114.47;;;27.93;31.20
32642;BME280;19323;56.072;9.698;2023-04-10T11:51:34;101105.41;;;27.94;31.21
32642;BME280;19323;56.072;9.698;2023-04-10T11:54:06;101099.84;;;27.96;31.09
32642;BME280;19323;56.072;9.698;2023-04-10T11:56:32;101096.31;;;27.96;30.75
32642;BME280;19323;56.072;9.698;2023-04-10T11:58:57;101092.78;;;27.95;30.94
32642;BME280;19323;56.072;9.698;2023-04-10T12:01:23;101089.91;;;27.97;30.98
32642;BME280;19323;56.072;9.698;2023-04-10T12:03:48;101094.44;;;27.96;30.94
32642;BME280;19323;56.072;9.698;2023-04-10T12:06:14;101081.66;;;27.98;30.97
32642;BME280;19323;56.072;9.698;2023-04-10T12:08:41;101069.91;;;27.99;31.01
32642;BME280;19323;56.072;9.698;2023-04-10T12:11:07;101070.75;;;28.00;30.52
32642;BME280;19323;56.072;9.698;2023-04-10T12:13:33;101068.88;;;28.00;30.75
32642;BME280;19323;56.072;9.698;2023-04-10T12:15:59;101067.03;;;28.01;30.55
32642;BME280;19323;56.072;9.698;2023-04-10T12:18:25;101057.94;;;28.02;30.94
32642;BME280;19323;56.072;9.698;2023-04-10T12:20:51;101062.31;;;28.03;30.49
32642;BME280;19323;56.072;9.698;2023-04-10T12:23:20;101058.63;;;28.04;30.68
32642;BME280;19323;56.072;9.698;2023-04-10T12:25:45;101054.06;;;28.04;30.82
32642;BME280;19323;56.072;9.698;2023-04-10T12:28:15;101049.53;;;28.05;30.84
32642;BME280;19323;56.072;9.698;2023-04-10T12:30:47;101047.66;;;28.05;30.54
32642;BME280;19323;56.072;9.698;2023-04-10T12:33:13;101030.34;;;28.00;30.83
32642;BME280;19323;56.072;9.698;2023-04-10T12:35:38;101036.75;;;28.07;30.66
32642;BME280;19323;56.072;9.698;2023-04-10T12:38:03;101029.50;;;28.07;30.47
32642;BME280;19323;56.072;9.698;2023-04-10T12:40:29;101027.81;;;28.06;30.45
32642;BME280;19323;56.072;9.698;2023-04-10T12:42:54;101026.81;;;28.07;30.86
32642;BME280;19323;56.072;9.698;2023-04-10T12:45:20;101024.97;;;28.08;30.86
32642;BME280;19323;56.072;9.698;2023-04-10T12:47:46;101011.31;;;28.09;30.61
32642;BME280;19323;56.072;9.698;2023-04-10T12:50:12;101011.16;;;28.11;30.85
32642;BME280;19323;56.072;9.698;2023-04-10T12:52:39;101017.56;;;28.10;30.74
32642;BME280;19323;56.072;9.698;2023-04-10T12:57:33;100996.84;;;28.10;30.93
32642;BME280;19323;56.072;9.698;2023-04-10T12:59:58;100988.78;;;28.10;30.91
32642;BME280;19323;56.072;9.698;2023-04-10T13:02:23;100981.53;;;28.11;30.73
32642;BME280;19323;56.072;9.698;2023-04-10T13:04:48;100974.28;;;28.11;30.80
32642;BME280;19323;56.072;9.698;2023-04-10T13:07:13;100969.56;;;28.13;30.73
32642;BME280;19323;56.072;9.698;2023-04-10T13:09:38;100967.72;;;28.14;30.58
32642;BME280;19323;56.072;9.698;2023-04-10T13:12:04;100949.72;;;28.14;30.80
32642;BME280;19323;56.072;9.698;2023-04-10T13:14:30;100948.88;;;28.14;30.91
32642;BME280;19323;56.072;9.698;2023-04-10T13:16:56;100948.69;;;28.15;31.00
32642;BME280;19323;56.072;9.698;2023-04-10T13:19:21;100943.47;;;28.14;30.97